Time;durP1;ratioP1;P1;durP2;ratioP2;P2;SDS_P1;SDS_P2;PMS_P1;PMS_P2;Temp;Humidity;BMP_temperature;BMP_pressure;BME280_temperature;BME280_humidity;BME280_pressure;Samples;Min_cycle;Max_cycle;Signal;HPM_P1;HPM_P2
2023/03/26 00:00:55;;;;;;;11.55;2.63;;;7.80;99.90;;;;;;4989058;28;20124;-74
2023/03/26 00:03:21;;;;;;;12.50;2.83;;;7.80;99.90;;;;;;4993491;28;20045;-73
2023/03/26 00:05:47;;;;;;;6.82;1.98;;;7.70;99.90;;;;;;5001696;28;20046;-74
2023/03/26 00:08:15;;;;;;;7.55;2.10;;;7.70;99.90;;;;;;4987716;28;20138;-74
2023/03/26 00:10:42;;;;;;;14.05;2.75;;;7.60;99.90;;;;;;5005155;28;20135;-73
2023/03/26 00:13:07;;;;;;;;;;;7.60;99.90;;;;;;4995991;28;20500;-74
2023/03/26 00:15:36;;;;;;;7.80;1.85;;;7.60;99.90;;;;;;5004988;28;19928;-74
2023/03/26 00:18:02;;;;;;;13.15;2.45;;;7.60;99.90;;;;;;4996102;28;20037;-75
2023/03/26 00:20:31;;;;;;;9.10;2.13;;;7.60;99.90;;;;;;5013489;28;20072;-72
2023/03/26 00:23:00;;;;;;;10.30;1.80;;;7.60;99.90;;;;;;4994077;28;20068;-72
2023/03/26 00:25:26;;;;;;;5.82;1.85;;;7.50;99.90;;;;;;4994603;28;20060;-73
2023/03/26 00:27:52;;;;;;;16.58;3.03;;;7.50;99.90;;;;;;5010429;28;20048;-73
2023/03/26 00:30:17;;;;;;;9.60;2.00;;;7.60;99.90;;;;;;4992023;28;20547;-72
2023/03/26 00:32:43;;;;;;;9.40;2.23;;;7.50;99.90;;;;;;4988115;28;20069;-73
2023/03/26 00:35:09;;;;;;;7.50;1.77;;;7.60;99.90;;;;;;4995095;28;20103;-72
2023/03/26 00:37:36;;;;;;;14.05;2.40;;;7.50;99.90;;;;;;4994051;28;20447;-72
2023/03/26 00:40:05;;;;;;;7.75;2.20;;;7.60;99.90;;;;;;5010366;28;20586;-74
2023/03/26 00:42:32;;;;;;;11.27;2.20;;;7.50;99.90;;;;;;4983034;28;20042;-72
2023/03/26 00:44:57;;;;;;;9.07;1.98;;;7.50;99.90;;;;;;5002700;28;20049;-72
2023/03/26 00:47:24;;;;;;;9.48;1.60;;;7.50;99.90;;;;;;4977180;28;20511;-73
2023/03/26 00:49:50;;;;;;;11.73;3.53;;;7.50;99.90;;;;;;5005876;28;20184;-75
2023/03/26 00:52:19;;;;;;;7.77;2.07;;;7.50;99.90;;;;;;4999984;28;20861;-72
2023/03/26 00:54:54;;;;;;;14.07;2.92;;;7.50;99.90;;;;;;4995078;28;20105;-74
2023/03/26 00:57:21;;;;;;;9.43;2.42;;;7.50;99.90;;;;;;5018522;28;20610;-76
2023/03/26 00:59:49;;;;;;;10.65;2.15;;;7.50;99.90;;;;;;5001786;28;20518;-73
2023/03/26 01:02:19;;;;;;;14.57;2.65;;;7.60;99.90;;;;;;4999795;28;20049;-72
2023/03/26 01:05:03;;;;;;;9.50;1.80;;;7.60;99.90;;;;;;5001621;28;20522;-72
2023/03/26 01:07:28;;;;;;;6.55;1.73;;;7.60;99.90;;;;;;4983240;28;20431;-74
2023/03/26 01:09:57;;;;;;;10.07;2.25;;;7.60;99.90;;;;;;4992579;28;20041;-72
2023/03/26 01:12:26;;;;;;;11.05;1.60;;;7.70;99.90;;;;;;5018838;28;20049;-73
2023/03/26 01:14:55;;;;;;;8.68;1.98;;;7.60;99.90;;;;;;4994936;28;20115;-71
2023/03/26 01:17:22;;;;;;;7.75;1.80;;;7.60;99.90;;;;;;5013825;28;20054;-71
2023/03/26 01:20:11;;;;;;;9.60;1.58;;;7.60;99.90;;;;;;4992203;28;20049;-71
2023/03/26 01:22:40;;;;;;;10.60;2.20;;;7.60;99.90;;;;;;4997081;28;20341;-73
2023/03/26 01:25:08;;;;;;;8.05;1.58;;;7.60;99.90;;;;;;4999403;28;20377;-71
2023/03/26 01:27:34;;;;;;;10.73;2.10;;;7.60;99.90;;;;;;5013317;28;20041;-73
2023/03/26 01:30:18;;;;;;;12.38;2.30;;;7.60;99.90;;;;;;4997473;28;20117;-71
2023/03/26 01:33:12;;;;;;;10.98;2.20;;;7.60;99.90;;;;;;4998791;28;20058;-72
2023/03/26 01:35:47;;;;;;;11.32;2.13;;;7.60;99.90;;;;;;4998285;28;20131;-74
2023/03/26 01:38:39;;;;;;;8.20;1.30;;;7.60;99.90;;;;;;4979137;28;20443;-70
2023/03/26 01:41:05;;;;;;;13.23;1.80;;;7.50;99.90;;;;;;5017657;28;20718;-70
2023/03/26 01:43:55;;;;;;;6.53;2.03;;;7.50;99.90;;;;;;5012410;28;20214;-72
2023/03/26 01:46:24;;;;;;;6.82;1.17;;;7.50;99.90;;;;;;5018276;28;20041;-71
2023/03/26 01:48:50;;;;;;;8.73;1.98;;;7.50;99.90;;;;;;4989505;28;20041;-72
2023/03/26 01:51:33;;;;;;;11.68;1.70;;;7.40;99.90;;;;;;5013557;28;20037;-71
2023/03/26 01:54:01;;;;;;;17.08;1.33;;;7.40;99.90;;;;;;4997089;28;20064;-71
2023/03/26 01:56:35;;;;;;;8.57;1.98;;;7.30;99.90;;;;;;4999084;28;20034;-71
2023/03/26 01:59:12;;;;;;;7.10;1.40;;;7.30;99.90;;;;;;5012303;28;20037;-71
2023/03/26 02:01:43;;;;;;;11.02;1.73;;;7.20;99.90;;;;;;4995648;28;20128;-72
2023/03/26 02:04:25;;;;;;;9.95;1.92;;;7.20;99.90;;;;;;5000445;28;20049;-72
2023/03/26 02:07:00;;;;;;;8.13;1.63;;;7.20;99.90;;;;;;4994821;28;20041;-72
2023/03/26 02:09:30;;;;;;;7.43;1.48;;;7.10;99.90;;;;;;5011212;28;20044;-73
2023/03/26 02:11:58;;;;;;;8.05;1.27;;;7.10;99.90;;;;;;5021152;28;20045;-72
2023/03/26 02:14:24;;;;;;;9.52;2.75;;;7.10;99.90;;;;;;4999256;28;20050;-72
2023/03/26 02:16:50;;;;;;;10.80;1.60;;;7.10;99.90;;;;;;4999248;28;20046;-72
2023/03/26 02:19:20;;;;;;;6.47;1.38;;;7.10;99.90;;;;;;4983808;28;20043;-72
2023/03/26 02:21:48;;;;;;;13.02;2.33;;;7.10;99.90;;;;;;4994319;28;20054;-72
2023/03/26 02:24:13;;;;;;;16.30;1.98;;;7.00;99.90;;;;;;5012056;28;20950;-73
2023/03/26 02:26:39;;;;;;;9.03;1.30;;;7.00;99.90;;;;;;4996041;28;20049;-71
2023/03/26 02:29:05;;;;;;;12.80;2.07;;;7.00;99.90;;;;;;5020356;28;20041;-71
2023/03/26 02:31:30;;;;;;;7.90;1.40;;;7.00;99.90;;;;;;5000161;28;20041;-74
2023/03/26 02:33:56;;;;;;;17.67;2.27;;;7.00;99.90;;;;;;5017428;28;20041;-71
2023/03/26 02:36:28;;;;;;;11.20;2.25;;;7.00;99.90;;;;;;4994862;28;20499;-72
2023/03/26 02:38:56;;;;;;;10.57;2.28;;;7.00;99.90;;;;;;5015017;28;22166;-73
2023/03/26 02:41:22;;;;;;;10.73;1.73;;;7.10;99.90;;;;;;4994144;28;20029;-71
2023/03/26 02:43:48;;;;;;;7.13;1.63;;;7.10;99.90;;;;;;5014343;28;20045;-72
2023/03/26 02:46:14;;;;;;;9.85;2.42;;;7.10;99.90;;;;;;4998756;28;20045;-71
2023/03/26 02:48:40;;;;;;;7.90;1.87;;;7.10;99.90;;;;;;5019901;28;20049;-72
2023/03/26 02:51:06;;;;;;;11.88;2.20;;;7.10;99.90;;;;;;4991406;28;20129;-71
2023/03/26 02:53:32;;;;;;;8.77;2.00;;;7.20;99.90;;;;;;5002768;28;20092;-72
2023/03/26 02:55:59;;;;;;;9.57;2.33;;;7.10;99.90;;;;;;4999564;28;20483;-72
2023/03/26 02:58:25;;;;;;;8.00;1.70;;;7.10;99.90;;;;;;5001387;28;20572;-73
2023/03/26 03:00:55;;;;;;;5.15;1.20;;;7.20;99.90;;;;;;5018731;28;20049;-73
2023/03/26 03:03:23;;;;;;;11.00;1.73;;;7.20;99.90;;;;;;4998282;28;20041;-72
2023/03/26 03:05:52;;;;;;;9.60;1.95;;;7.20;99.90;;;;;;5017947;28;20070;-71
2023/03/26 03:08:23;;;;;;;7.13;1.83;;;7.20;99.90;;;;;;4999200;28;20045;-71
2023/03/26 03:11:00;;;;;;;9.00;1.90;;;7.20;99.90;;;;;;5020257;28;20132;-72
2023/03/26 03:13:26;;;;;;;8.45;2.50;;;7.20;99.90;;;;;;5010876;28;20065;-73
2023/03/26 03:15:52;;;;;;;14.48;1.90;;;7.20;99.90;;;;;;5001866;28;20045;-71
2023/03/26 03:18:18;;;;;;;11.75;1.90;;;7.20;99.90;;;;;;4984259;28;20121;-72
2023/03/26 03:20:43;;;;;;;16.17;1.80;;;7.20;99.90;;;;;;5001178;28;20156;-72
2023/03/26 03:23:10;;;;;;;9.97;1.97;;;7.10;99.90;;;;;;4994913;28;20112;-72
2023/03/26 03:25:37;;;;;;;15.32;2.47;;;7.10;99.90;;;;;;5000825;28;20060;-71
2023/03/26 03:28:03;;;;;;;10.90;1.98;;;7.10;99.90;;;;;;4998264;28;20122;-72
2023/03/26 03:30:29;;;;;;;;;;;7.10;99.90;;;;;;5000066;28;20060;-72
2023/03/26 03:32:57;;;;;;;8.48;1.95;;;7.10;99.90;;;;;;5012075;28;19917;-73
2023/03/26 03:35:23;;;;;;;8.68;1.48;;;7.10;99.90;;;;;;5018356;28;20754;-73
2023/03/26 03:37:49;;;;;;;;;;;7.00;99.90;;;;;;4998685;28;20037;-71
2023/03/26 03:40:15;;;;;;;12.65;2.15;;;7.00;99.90;;;;;;5022813;28;19917;-73
2023/03/26 03:42:41;;;;;;;18.15;2.40;;;7.00;99.90;;;;;;5000522;28;20122;-72
2023/03/26 03:45:08;;;;;;;10.97;2.47;;;6.90;99.90;;;;;;4993522;28;20199;-72
2023/03/26 03:47:33;;;;;;;6.00;1.90;;;6.90;99.90;;;;;;4998983;28;20357;-72
2023/03/26 03:49:59;;;;;;;11.47;1.50;;;6.80;99.90;;;;;;5018015;28;20041;-72
2023/03/26 03:52:27;;;;;;;11.90;2.10;;;6.80;99.90;;;;;;4999865;28;20124;-72
2023/03/26 03:54:56;;;;;;;10.32;1.98;;;6.80;99.90;;;;;;4998973;28;20338;-72
2023/03/26 03:57:22;;;;;;;15.80;2.47;;;6.70;99.90;;;;;;5016399;28;20037;-72
2023/03/26 03:59:48;;;;;;;8.35;1.92;;;6.70;99.90;;;;;;5001559;28;20518;-72
2023/03/26 04:02:24;;;;;;;9.73;2.38;;;6.70;99.90;;;;;;4986408;28;20041;-73
2023/03/26 04:04:53;;;;;;;9.40;2.08;;;6.60;99.90;;;;;;4993665;28;20090;-72
2023/03/26 04:07:19;;;;;;;10.63;1.52;;;6.60;99.90;;;;;;5019685;28;20083;-72
2023/03/26 04:09:45;;;;;;;16.85;2.58;;;6.50;99.90;;;;;;5013353;28;20038;-71
2023/03/26 04:12:11;;;;;;;7.83;2.23;;;6.50;99.90;;;;;;4988393;28;20045;-72
2023/03/26 04:14:36;;;;;;;14.60;2.17;;;6.50;99.90;;;;;;5001265;28;20068;-73
2023/03/26 04:17:04;;;;;;;9.27;1.77;;;6.50;99.90;;;;;;5018236;28;20045;-72
2023/03/26 04:19:30;;;;;;;5.57;1.65;;;6.40;99.90;;;;;;5006555;28;20037;-72
2023/03/26 04:22:01;;;;;;;9.07;1.73;;;6.40;99.90;;;;;;5017435;28;20112;-73
2023/03/26 04:24:27;;;;;;;10.23;1.58;;;6.50;99.90;;;;;;4997829;28;20061;-72
2023/03/26 04:26:59;;;;;;;13.60;2.92;;;6.40;99.90;;;;;;4999968;28;20071;-73
2023/03/26 04:29:26;;;;;;;7.72;1.90;;;6.40;99.90;;;;;;5019607;28;20387;-73
2023/03/26 04:31:57;;;;;;;11.27;1.55;;;6.40;99.90;;;;;;4985115;28;20042;-72
2023/03/26 04:34:24;;;;;;;9.43;2.15;;;6.40;99.90;;;;;;4987150;28;20384;-71
2023/03/26 04:36:53;;;;;;;20.67;2.13;;;6.30;99.90;;;;;;4996434;28;20165;-72
2023/03/26 04:39:22;;;;;;;9.95;1.95;;;6.40;99.90;;;;;;5015645;28;20041;-71
2023/03/26 04:41:48;;;;;;;7.57;2.17;;;6.30;99.90;;;;;;5006829;28;20111;-71
2023/03/26 04:44:15;;;;;;;9.97;1.93;;;6.30;99.90;;;;;;5007150;28;20113;-73
2023/03/26 04:46:42;;;;;;;10.27;1.42;;;6.30;99.90;;;;;;4994088;28;20060;-71
2023/03/26 04:49:08;;;;;;;;;;;6.30;99.90;;;;;;4985107;28;20112;-73
2023/03/26 04:51:40;;;;;;;8.57;1.90;;;6.30;99.90;;;;;;5003944;28;20941;-72
2023/03/26 04:54:07;;;;;;;5.82;1.63;;;6.30;99.90;;;;;;5023972;28;20490;-73
2023/03/26 04:56:51;;;;;;;;;;;6.40;99.90;;;;;;5020315;28;20487;-72
2023/03/26 04:59:28;;;;;;;10.50;2.38;;;6.40;99.90;;;;;;4993002;28;20020;-72
2023/03/26 05:01:55;;;;;;;10.15;1.52;;;6.40;99.90;;;;;;5020123;28;20050;-72
2023/03/26 05:04:21;;;;;;;12.73;1.52;;;6.40;99.90;;;;;;5005959;28;20082;-71
2023/03/26 05:06:47;;;;;;;9.05;1.80;;;6.40;99.90;;;;;;5004529;28;20033;-71
2023/03/26 05:09:13;;;;;;;6.73;2.10;;;6.40;99.90;;;;;;5019893;28;20435;-73
2023/03/26 05:11:39;;;;;;;12.05;2.30;;;6.50;99.90;;;;;;5021926;28;20485;-71
2023/03/26 05:14:05;;;;;;;8.88;1.58;;;6.40;99.90;;;;;;5019385;28;20053;-73
2023/03/26 05:16:30;;;;;;;11.13;1.90;;;6.40;99.90;;;;;;4998658;28;20186;-73
2023/03/26 05:18:56;;;;;;;7.65;1.52;;;6.40;99.90;;;;;;5000426;28;20044;-71
2023/03/26 05:21:22;;;;;;;13.65;1.60;;;6.50;99.90;;;;;;4998703;28;20137;-71
2023/03/26 05:23:48;;;;;;;10.50;1.83;;;6.50;99.90;;;;;;5004317;28;20037;-71
2023/03/26 05:26:13;;;;;;;9.23;2.10;;;6.40;99.90;;;;;;5003451;28;20037;-71
2023/03/26 05:28:39;;;;;;;12.67;2.43;;;6.50;99.90;;;;;;5021273;28;20033;-72
2023/03/26 05:31:06;;;;;;;12.57;2.35;;;6.40;99.90;;;;;;5001753;28;20076;-72
2023/03/26 05:33:32;;;;;;;9.65;1.77;;;6.40;99.90;;;;;;5006783;28;20073;-72
2023/03/26 05:36:14;;;;;;;10.27;1.60;;;6.40;99.90;;;;;;5019756;28;20251;-71
2023/03/26 05:38:41;;;;;;;9.35;1.67;;;6.40;99.90;;;;;;5002842;28;20085;-72
2023/03/26 05:41:08;;;;;;;9.10;2.00;;;6.40;99.90;;;;;;4971946;28;20045;-72
2023/03/26 05:43:35;;;;;;;9.45;2.10;;;6.40;99.90;;;;;;5018120;28;20129;-73
2023/03/26 05:46:01;;;;;;;6.47;1.60;;;6.40;99.90;;;;;;4985684;28;20403;-72
2023/03/26 05:48:26;;;;;;;11.52;2.42;;;6.40;99.90;;;;;;4999881;28;20045;-73
2023/03/26 05:50:55;;;;;;;8.52;1.70;;;6.40;99.90;;;;;;5019851;28;20431;-71
2023/03/26 05:53:22;;;;;;;12.23;1.77;;;6.40;99.90;;;;;;4992734;28;20107;-72
2023/03/26 05:55:56;;;;;;;13.13;3.63;;;6.40;99.90;;;;;;5020315;28;20045;-73
2023/03/26 05:58:26;;;;;;;12.10;1.95;;;6.40;99.90;;;;;;5016719;28;20042;-72
2023/03/26 06:01:07;;;;;;;8.23;2.15;;;6.40;99.90;;;;;;4999641;28;20381;-71
2023/03/26 06:03:36;;;;;;;16.05;2.50;;;6.30;99.90;;;;;;5003649;28;20041;-72
2023/03/26 06:06:05;;;;;;;11.80;3.03;;;6.40;99.90;;;;;;4998636;28;20099;-71
2023/03/26 06:08:32;;;;;;;12.02;2.97;;;6.30;99.90;;;;;;4990587;28;20037;-73
2023/03/26 06:11:06;;;;;;;7.93;1.95;;;6.40;99.90;;;;;;5013895;28;20033;-72
2023/03/26 06:13:32;;;;;;;8.57;1.58;;;6.40;99.90;;;;;;5006626;28;20460;-72
2023/03/26 06:15:58;;;;;;;7.00;1.90;;;6.40;99.90;;;;;;5001284;28;20243;-73
2023/03/26 06:18:24;;;;;;;7.70;1.63;;;6.40;99.90;;;;;;5001229;28;20076;-72
2023/03/26 06:20:51;;;;;;;;;;;6.40;99.90;;;;;;4984054;28;20268;-73
2023/03/26 06:23:17;;;;;;;13.90;1.70;;;6.50;99.90;;;;;;5003283;28;19920;-73
2023/03/26 06:25:44;;;;;;;;;;;6.40;99.90;;;;;;5001375;28;20056;-71
2023/03/26 06:28:10;;;;;;;11.52;1.52;;;6.40;99.90;;;;;;4995486;28;19928;-71
2023/03/26 06:30:36;;;;;;;9.15;1.70;;;6.40;99.90;;;;;;5018957;28;20037;-74
2023/03/26 06:33:02;;;;;;;9.33;1.67;;;6.50;99.90;;;;;;5007247;28;20045;-71
2023/03/26 06:35:29;;;;;;;6.50;1.58;;;6.50;99.90;;;;;;5003023;28;20151;-71
2023/03/26 06:37:55;;;;;;;;;;;6.50;99.90;;;;;;5013963;28;20041;-72
2023/03/26 06:40:20;;;;;;;9.75;1.50;;;6.50;99.90;;;;;;5007976;28;19917;-72
2023/03/26 06:42:46;;;;;;;6.07;1.60;;;6.50;99.90;;;;;;4999812;28;20049;-71
2023/03/26 06:45:12;;;;;;;11.17;3.00;;;6.50;99.90;;;;;;5007587;28;20539;-71
2023/03/26 06:47:37;;;;;;;8.90;2.43;;;6.60;99.90;;;;;;5002071;28;20387;-72
2023/03/26 06:50:04;;;;;;;13.70;1.70;;;6.60;99.90;;;;;;4986611;28;20408;-71
2023/03/26 06:52:30;;;;;;;10.23;2.10;;;6.60;99.90;;;;;;5000304;28;20099;-71
2023/03/26 06:54:56;;;;;;;11.35;1.52;;;6.70;99.90;;;;;;4986050;28;20487;-71
2023/03/26 06:57:21;;;;;;;5.90;2.03;;;6.70;99.90;;;;;;4998617;28;20037;-71
2023/03/26 06:59:47;;;;;;;5.90;1.10;;;6.70;99.90;;;;;;4974941;28;20057;-72
2023/03/26 07:02:13;;;;;;;13.75;1.92;;;6.80;99.90;;;;;;4991460;28;20110;-73
2023/03/26 07:04:39;;;;;;;7.22;1.98;;;6.80;99.90;;;;;;4998340;28;20041;-73
2023/03/26 07:07:04;;;;;;;11.27;2.33;;;6.80;99.90;;;;;;4997944;28;20049;-71
2023/03/26 07:09:30;;;;;;;12.23;1.43;;;6.90;99.90;;;;;;5017962;28;20056;-71
2023/03/26 07:11:57;;;;;;;11.60;1.83;;;6.90;99.90;;;;;;5016663;28;20312;-72
2023/03/26 07:14:23;;;;;;;12.00;1.60;;;7.00;99.90;;;;;;5015595;28;20033;-72
2023/03/26 07:16:50;;;;;;;4.35;1.45;;;7.00;99.90;;;;;;4998080;28;20073;-71
2023/03/26 07:19:15;;;;;;;;;;;7.10;99.90;;;;;;4998787;28;20061;-73
2023/03/26 07:21:41;;;;;;;8.60;2.05;;;7.10;99.90;;;;;;5022850;28;20270;-71
2023/03/26 07:24:11;;;;;;;7.20;1.80;;;7.10;99.90;;;;;;4996555;28;20528;-71
2023/03/26 07:26:49;;;;;;;10.40;2.15;;;7.20;99.90;;;;;;5015157;28;20045;-73
2023/03/26 07:29:43;;;;;;;7.40;1.55;;;7.20;99.90;;;;;;4997578;28;20500;-72
2023/03/26 07:32:15;;;;;;;7.65;1.52;;;7.30;99.90;;;;;;5000839;22;20112;-70
2023/03/26 07:35:08;;;;;;;8.05;1.60;;;7.30;99.90;;;;;;4987453;28;20049;-69
2023/03/26 07:37:53;;;;;;;10.45;1.63;;;7.40;99.90;;;;;;4996707;28;20044;-70
2023/03/26 07:40:34;;;;;;;6.38;1.30;;;7.40;99.90;;;;;;4989615;28;20041;-71
2023/03/26 07:43:14;;;;;;;8.23;1.33;;;7.40;99.90;;;;;;4988085;28;20562;-70
2023/03/26 07:45:44;;;;;;;10.95;2.13;;;7.50;99.90;;;;;;4986410;28;20046;-70
2023/03/26 07:48:15;;;;;;;15.02;1.50;;;7.50;99.90;;;;;;4990302;28;20554;-69
2023/03/26 07:50:42;;;;;;;7.80;1.67;;;7.50;99.90;;;;;;5003307;28;20050;-70
2023/03/26 07:53:08;;;;;;;11.55;1.50;;;7.60;99.90;;;;;;4991366;28;20136;-71
2023/03/26 07:55:38;;;;;;;8.77;1.42;;;7.60;99.90;;;;;;4981736;28;20543;-71
2023/03/26 07:58:44;;;;;;;7.13;1.85;;;7.60;99.90;;;;;;4986567;28;20447;-70
2023/03/26 08:01:27;;;;;;;10.23;2.00;;;7.60;99.90;;;;;;4998732;28;20057;-70
2023/03/26 08:03:56;;;;;;;4.97;1.48;;;7.70;99.90;;;;;;4983906;28;20048;-70
2023/03/26 08:06:37;;;;;;;12.40;1.60;;;7.70;99.90;;;;;;4981261;28;20052;-70
2023/03/26 08:09:32;;;;;;;8.20;1.13;;;7.70;99.90;;;;;;4980038;28;20038;-70
2023/03/26 08:12:17;;;;;;;6.40;1.90;;;7.70;99.90;;;;;;4946940;28;20065;-70
2023/03/26 08:15:02;;;;;;;10.75;1.65;;;7.80;99.90;;;;;;4999835;28;20041;-70
2023/03/26 08:17:49;;;;;;;6.13;2.35;;;7.80;99.90;;;;;;4974457;28;20574;-70
2023/03/26 08:20:29;;;;;;;10.07;1.27;;;7.90;99.90;;;;;;5003559;28;20116;-69
2023/03/26 08:23:12;;;;;;;8.48;1.23;;;7.90;99.90;;;;;;4982636;28;20124;-70
2023/03/26 08:25:48;;;;;;;8.27;1.33;;;7.90;99.90;;;;;;4977352;28;20069;-70
2023/03/26 08:28:25;;;;;;;5.97;1.10;;;8.00;99.90;;;;;;4979682;28;20138;-68
2023/03/26 08:30:53;;;;;;;11.73;1.48;;;8.00;99.90;;;;;;4982784;28;20155;-70
2023/03/26 08:33:23;;;;;;;7.78;1.27;;;8.10;99.90;;;;;;4983224;28;20041;-70
2023/03/26 08:35:49;;;;;;;5.53;1.20;;;8.10;99.90;;;;;;4980749;28;20124;-70
2023/03/26 08:38:17;;;;;;;11.07;1.40;;;8.20;99.90;;;;;;4971109;28;20184;-70
2023/03/26 08:41:02;;;;;;;13.77;2.22;;;8.20;99.90;;;;;;4981806;28;20295;-70
2023/03/26 08:44:01;;;;;;;7.30;1.20;;;8.30;99.90;;;;;;4967757;28;20057;-71
2023/03/26 08:46:51;;;;;;;9.77;1.33;;;8.30;99.90;;;;;;4974987;28;20033;-70
2023/03/26 08:49:48;;;;;;;7.70;1.40;;;8.30;99.90;;;;;;4977679;28;20044;-70
2023/03/26 08:52:29;;;;;;;10.93;1.83;;;8.40;99.90;;;;;;4985357;28;20507;-70
2023/03/26 08:55:33;;;;;;;11.55;1.98;;;8.40;99.90;;;;;;4981564;28;20443;-70
2023/03/26 08:58:02;;;;;;;7.07;1.35;;;8.50;99.90;;;;;;4980306;28;20076;-71
2023/03/26 09:00:36;;;;;;;6.05;1.30;;;8.60;99.90;;;;;;4984060;28;20050;-70
2023/03/26 09:03:33;;;;;;;8.60;1.67;;;8.60;99.90;;;;;;4963789;28;20050;-70
2023/03/26 09:06:17;;;;;;;9.48;1.73;;;8.70;99.90;;;;;;4981623;28;20467;-70
2023/03/26 09:09:12;;;;;;;10.23;1.35;;;8.70;99.90;;;;;;5000686;28;20037;-71
2023/03/26 09:12:03;;;;;;;10.02;1.85;;;8.70;99.90;;;;;;4980942;28;20046;-69
2023/03/26 09:15:06;;;;;;;8.35;1.70;;;8.80;99.90;;;;;;4979333;28;20105;-70
2023/03/26 09:17:50;;;;;;;12.23;1.95;;;8.90;99.90;;;;;;4985544;28;20527;-70
2023/03/26 09:20:51;;;;;;;12.90;2.13;;;8.80;99.90;;;;;;4988934;28;20559;-71
2023/03/26 09:23:48;;;;;;;9.63;1.75;;;8.80;99.90;;;;;;4985760;28;20550;-70
2023/03/26 09:26:41;;;;;;;7.45;1.70;;;8.90;99.90;;;;;;4985042;28;20491;-70
2023/03/26 09:29:24;;;;;;;15.88;1.65;;;8.90;99.90;;;;;;5004400;28;20041;-70
2023/03/26 09:32:26;;;;;;;6.13;1.52;;;9.00;99.90;;;;;;4985598;28;20047;-70
2023/03/26 09:35:06;;;;;;;11.48;1.73;;;9.00;99.90;;;;;;4998941;28;20077;-70
2023/03/26 09:37:35;;;;;;;8.18;1.70;;;9.00;99.90;;;;;;4988289;28;20049;-70
2023/03/26 09:40:17;;;;;;;10.10;1.58;;;9.10;99.90;;;;;;4983223;28;20057;-70
2023/03/26 09:43:01;;;;;;;7.57;1.30;;;9.20;99.90;;;;;;4982573;28;20350;-70
2023/03/26 09:45:37;;;;;;;6.70;1.83;;;9.20;99.90;;;;;;4982201;28;20042;-70
2023/03/26 09:48:11;;;;;;;8.43;1.70;;;9.20;99.90;;;;;;4997610;28;20042;-70
2023/03/26 09:50:55;;;;;;;7.38;1.98;;;9.30;99.90;;;;;;4979750;28;20046;-69
2023/03/26 09:53:56;;;;;;;9.50;1.27;;;9.30;99.90;;;;;;4987400;28;20046;-70
2023/03/26 09:56:38;;;;;;;7.78;1.90;;;9.30;99.90;;;;;;4982643;28;20050;-71
2023/03/26 09:59:04;;;;;;;13.07;2.05;;;9.30;99.90;;;;;;4985759;28;20503;-70
2023/03/26 10:01:55;;;;;;;11.30;1.17;;;9.30;99.90;;;;;;4985569;28;20064;-70
2023/03/26 10:04:48;;;;;;;6.95;1.25;;;9.30;99.90;;;;;;4985460;28;20285;-71
2023/03/26 10:07:42;;;;;;;8.98;1.63;;;9.30;99.90;;;;;;4985704;28;20086;-70
2023/03/26 10:10:30;;;;;;;6.82;1.75;;;9.30;99.90;;;;;;4979577;28;20034;-70
2023/03/26 10:13:06;;;;;;;9.55;1.40;;;9.20;99.90;;;;;;4979217;28;20073;-71
2023/03/26 10:15:56;;;;;;;7.72;1.45;;;9.20;99.90;;;;;;5000217;28;20690;-68
2023/03/26 10:18:47;;;;;;;8.25;1.70;;;9.30;99.90;;;;;;4969430;28;20042;-69
2023/03/26 10:21:39;;;;;;;8.40;1.15;;;9.30;99.90;;;;;;4979750;28;20033;-70
2023/03/26 10:24:37;;;;;;;10.00;1.67;;;9.40;99.90;;;;;;4989753;28;20412;-68
2023/03/26 10:27:07;;;;;;;17.42;2.65;;;9.40;99.90;;;;;;4977872;28;20092;-69
2023/03/26 10:29:54;;;;;;;7.63;1.25;;;9.40;99.90;;;;;;4997840;28;20475;-68
2023/03/26 10:32:30;;;;;;;16.17;2.22;;;9.40;99.90;;;;;;4976355;28;20279;-68
2023/03/26 10:35:17;;;;;;;7.57;1.85;;;9.50;99.90;;;;;;4981454;28;20050;-68
2023/03/26 10:38:04;;;;;;;13.23;1.83;;;9.60;99.90;;;;;;4996141;28;20141;-69
2023/03/26 10:40:31;;;;;;;6.68;1.80;;;9.60;99.90;;;;;;4985323;28;20107;-69
2023/03/26 10:43:37;;;;;;;4.28;1.65;;;9.70;99.90;;;;;;4976130;28;20121;-68
2023/03/26 10:46:47;;;;;;;8.20;1.52;;;9.80;99.90;;;;;;4975060;28;20042;-68
2023/03/26 10:49:34;;;;;;;9.38;1.98;;;9.90;99.90;;;;;;4964738;28;20444;-68
2023/03/26 10:52:08;;;;;;;13.07;1.80;;;10.00;99.90;;;;;;4998170;28;20046;-68
2023/03/26 10:54:55;;;;;;;8.82;1.73;;;10.10;99.90;;;;;;4980337;28;20103;-68
2023/03/26 10:57:39;;;;;;;7.03;1.67;;;10.10;99.90;;;;;;4996188;28;20045;-69
2023/03/26 11:00:34;;;;;;;7.53;1.73;;;10.00;99.90;;;;;;4979268;28;20056;-68
2023/03/26 11:03:28;;;;;;;9.98;1.58;;;10.00;99.90;;;;;;4991464;28;20074;-68
2023/03/26 11:06:24;;;;;;;14.30;1.60;;;10.00;99.90;;;;;;4972319;28;20042;-68
2023/03/26 11:08:52;;;;;;;8.30;1.33;;;10.00;99.90;;;;;;4945703;28;20061;-68
2023/03/26 11:11:43;;;;;;;7.68;1.88;;;10.00;99.90;;;;;;4966393;28;20519;-69
2023/03/26 11:14:30;;;;;;;8.35;1.25;;;9.90;99.90;;;;;;4981105;28;20388;-69
2023/03/26 11:17:09;;;;;;;7.43;1.45;;;9.90;99.90;;;;;;4982360;28;20045;-68
2023/03/26 11:19:45;;;;;;;4.88;1.13;;;9.80;99.90;;;;;;4979842;28;20147;-69
2023/03/26 11:22:16;;;;;;;10.52;2.17;;;9.80;99.90;;;;;;4986399;28;20046;-69
2023/03/26 11:24:53;;;;;;;9.70;1.40;;;9.80;99.90;;;;;;4997039;28;20102;-69
2023/03/26 11:27:43;;;;;;;7.43;1.50;;;9.70;99.90;;;;;;4998376;28;20042;-69
2023/03/26 11:30:12;;;;;;;11.05;1.50;;;9.70;99.90;;;;;;4975214;28;20105;-69
2023/03/26 11:32:43;;;;;;;7.43;1.17;;;9.60;99.90;;;;;;4981104;28;20892;-69
2023/03/26 11:35:25;;;;;;;9.38;1.52;;;9.60;99.90;;;;;;4990583;28;20050;-69
2023/03/26 11:37:55;;;;;;;5.97;0.98;;;9.60;99.90;;;;;;4994303;28;20041;-69
2023/03/26 11:40:33;;;;;;;12.85;1.42;;;9.60;99.90;;;;;;4971260;28;20046;-69
2023/03/26 11:43:03;;;;;;;7.93;1.70;;;9.70;99.90;;;;;;4982173;28;20054;-69
2023/03/26 11:45:36;;;;;;;8.77;1.40;;;9.60;99.90;;;;;;4997499;28;20045;-69
2023/03/26 11:48:11;;;;;;;8.48;1.58;;;9.70;99.90;;;;;;4982886;28;20042;-70
2023/03/26 11:50:47;;;;;;;6.13;1.02;;;10.00;99.90;;;;;;4977381;28;20050;-70
2023/03/26 11:53:19;;;;;;;7.72;1.65;;;10.20;99.90;;;;;;4997991;28;20193;-70
2023/03/26 11:56:28;;;;;;;9.10;1.77;;;10.30;99.90;;;;;;4973689;28;20050;-69
2023/03/26 11:59:18;;;;;;;9.43;1.80;;;10.40;99.90;;;;;;4982432;28;20130;-67
2023/03/26 12:01:57;;;;;;;9.02;1.98;;;10.50;99.90;;;;;;4977949;28;20052;-67
2023/03/26 12:04:33;;;;;;;7.45;1.83;;;10.50;99.90;;;;;;4977907;28;20056;-67
2023/03/26 12:07:22;;;;;;;9.40;1.77;;;10.60;99.90;;;;;;4962433;28;20048;-70
2023/03/26 12:09:52;;;;;;;7.30;1.27;;;10.50;99.90;;;;;;4978827;28;20057;-73
2023/03/26 12:12:19;;;;;;;7.78;1.40;;;10.40;99.90;;;;;;4996824;28;20365;-68
2023/03/26 12:14:48;;;;;;;5.18;1.20;;;10.40;99.90;;;;;;4978751;28;20125;-67
2023/03/26 12:17:26;;;;;;;4.32;1.25;;;10.30;99.90;;;;;;4976557;28;20335;-68
2023/03/26 12:19:52;;;;;;;5.20;1.00;;;10.20;99.90;;;;;;4974453;28;20092;-68
2023/03/26 12:22:36;;;;;;;10.93;2.03;;;10.30;99.90;;;;;;4998396;28;20042;-68
2023/03/26 12:25:18;;;;;;;7.82;1.10;;;10.50;99.90;;;;;;4963429;28;20481;-68
2023/03/26 12:28:12;;;;;;;6.78;1.25;;;10.50;99.90;;;;;;4995261;28;20135;-68
2023/03/26 12:30:50;;;;;;;7.30;1.92;;;10.40;98.10;;;;;;4978314;28;20103;-68
2023/03/26 12:33:25;;;;;;;9.27;1.17;;;10.30;99.90;;;;;;4980380;28;20053;-73
2023/03/26 12:35:51;;;;;;;7.75;1.30;;;10.30;99.90;;;;;;4996745;28;20484;-67
2023/03/26 12:38:34;;;;;;;5.25;1.38;;;10.30;99.90;;;;;;4976071;28;20348;-68
2023/03/26 12:41:13;;;;;;;5.28;1.10;;;10.20;99.40;;;;;;4983260;28;20054;-68
2023/03/26 12:43:38;;;;;;;6.10;1.02;;;10.10;99.60;;;;;;4974396;28;20495;-74
2023/03/26 12:46:25;;;;;;;3.80;1.07;;;10.10;99.90;;;;;;4995677;28;20048;-69
2023/03/26 12:48:56;;;;;;;8.23;2.20;;;10.00;97.40;;;;;;5001587;28;20228;-68
2023/03/26 12:51:50;;;;;;;3.90;1.10;;;10.00;99.70;;;;;;4968598;28;20062;-68
2023/03/26 12:54:35;;;;;;;8.20;1.48;;;10.00;99.70;;;;;;4999783;28;20403;-68
2023/03/26 12:57:23;;;;;;;5.22;1.00;;;10.10;99.90;;;;;;5000572;28;20293;-68
2023/03/26 13:00:12;;;;;;;11.25;1.17;;;10.10;99.60;;;;;;4981714;28;20100;-70
2023/03/26 13:02:53;;;;;;;6.18;1.10;;;10.20;99.90;;;;;;4979815;28;20060;-70
2023/03/26 13:05:38;;;;;;;6.13;1.27;;;10.20;99.50;;;;;;4982733;28;20433;-70
2023/03/26 13:08:34;;;;;;;8.93;1.33;;;10.10;99.10;;;;;;4975758;28;20495;-70
2023/03/26 13:11:24;;;;;;;6.10;1.55;;;10.10;99.90;;;;;;4978507;28;20045;-70
2023/03/26 13:14:21;;;;;;;4.30;1.13;;;10.00;99.80;;;;;;5004914;28;20739;-69
2023/03/26 13:16:53;;;;;;;5.18;1.10;;;9.90;98.80;;;;;;4998344;28;20041;-70
2023/03/26 13:19:33;;;;;;;5.93;0.93;;;9.70;99.60;;;;;;4980049;28;20041;-70
2023/03/26 13:22:16;;;;;;;7.32;0.98;;;9.60;99.90;;;;;;4975698;28;20453;-69
2023/03/26 13:25:05;;;;;;;6.65;1.30;;;9.60;99.90;;;;;;4992706;28;20281;-70
2023/03/26 13:27:51;;;;;;;5.93;1.30;;;9.50;99.40;;;;;;4961856;28;20046;-70
2023/03/26 13:30:46;;;;;;;6.60;1.27;;;9.40;98.40;;;;;;4973223;28;20120;-70
2023/03/26 13:33:19;;;;;;;5.55;1.00;;;9.30;96.70;;;;;;5000756;28;20279;-68